createdAt,value
2022-09-10T00:00:48.664Z,65.13
2022-09-10T00:03:18.476Z,65.81
2022-09-10T00:05:48.022Z,65.80
2022-09-10T00:08:19.051Z,66.30
2022-09-10T00:10:51.906Z,66.13
2022-09-10T00:13:23.181Z,66.56
2022-09-10T00:15:55.183Z,65.56
2022-09-10T00:18:24.545Z,66.96
2022-09-10T00:20:55.907Z,67.12
2022-09-10T00:23:36.521Z,67.78
2022-09-10T00:26:15.512Z,65.91
2022-09-10T00:28:46.901Z,66.02
2022-09-10T00:31:18.559Z,65.43
2022-09-10T00:33:53.306Z,66.42
2022-09-10T00:36:33.553Z,67.17
2022-09-10T00:39:12.568Z,66.26
2022-09-10T00:41:44.731Z,66.24
2022-09-10T00:44:40.248Z,66.10
2022-09-10T00:47:19.548Z,67.21
2022-09-10T00:50:02.904Z,67.43
2022-09-10T00:52:39.621Z,66.96
2022-09-10T00:55:10.924Z,65.33
2022-09-10T00:57:42.623Z,64.02
2022-09-10T01:00:15.583Z,64.48
2022-09-10T01:02:46.167Z,65.83
2022-09-10T01:05:18.529Z,64.18
2022-09-10T01:07:50.389Z,63.35
2022-09-10T01:10:30.033Z,62.41
2022-09-10T01:13:22.551Z,61.86
2022-09-10T01:16:26.723Z,62.85
2022-09-10T01:19:01.957Z,63.26
2022-09-10T01:21:49.600Z,62.96
2022-09-10T01:24:39.008Z,63.43
2022-09-10T01:27:30.567Z,63.46
2022-09-10T01:30:06.946Z,63.32
2022-09-10T01:32:51.046Z,64.50
2022-09-10T01:35:27.931Z,65.14
2022-09-10T01:38:07.847Z,63.81
2022-09-10T01:40:38.979Z,63.13
2022-09-10T01:43:12.371Z,62.34
2022-09-10T01:46:33.064Z,62.89
2022-09-10T01:49:15.914Z,62.67
2022-09-10T01:52:22.995Z,62.31
2022-09-10T01:55:25.480Z,61.10
2022-09-10T01:58:20.364Z,61.89
2022-09-10T02:01:00.583Z,63.47
2022-09-10T02:03:36.702Z,63.07
2022-09-10T02:06:10.634Z,63.65
2022-09-10T02:08:46.921Z,64.07
2022-09-10T02:11:17.598Z,63.71
2022-09-10T02:13:49.447Z,62.79
2022-09-10T02:16:25.215Z,63.13
2022-09-10T02:18:57.623Z,63.01
2022-09-10T02:21:29.147Z,61.91
2022-09-10T02:24:06.646Z,61.96
2022-09-10T02:26:42.903Z,60.88
2022-09-10T02:29:17.849Z,61.74
2022-09-10T02:31:48.916Z,60.90
2022-09-10T02:34:23.964Z,61.66
2022-09-10T02:36:53.549Z,61.67
2022-09-10T02:39:23.409Z,61.67
2022-09-10T02:41:53.006Z,61.69
2022-09-10T02:44:25.871Z,61.90
2022-09-10T02:46:58.651Z,61.06
2022-09-10T02:49:28.975Z,60.95
2022-09-10T02:52:00.754Z,61.70
2022-09-10T02:54:31.184Z,60.97
2022-09-10T02:57:01.108Z,61.42
2022-09-10T02:59:33.478Z,62.03
2022-09-10T03:02:03.835Z,61.29
2022-09-10T03:04:34.811Z,61.13
2022-09-10T03:07:04.595Z,60.33
2022-09-10T03:09:36.785Z,60.50
2022-09-10T03:12:09.475Z,60.50
2022-09-10T03:14:39.694Z,59.90
2022-09-10T03:17:10.054Z,61.26
2022-09-10T03:19:45.326Z,61.35
2022-09-10T03:22:19.330Z,60.35
2022-09-10T03:24:49.344Z,60.16
2022-09-10T03:27:23.339Z,60.03
2022-09-10T03:30:08.112Z,59.78
2022-09-10T03:32:52.829Z,59.52
2022-09-10T03:35:26.807Z,59.36
2022-09-10T03:37:56.416Z,58.56
2022-09-10T03:40:25.543Z,58.76
2022-09-10T03:42:55.554Z,58.98
2022-09-10T03:45:26.901Z,59.49
2022-09-10T03:47:59.429Z,57.61
2022-09-10T03:50:32.522Z,58.85
2022-09-10T03:53:04.664Z,57.85
2022-09-10T03:55:35.000Z,58.54
2022-09-10T03:58:07.233Z,58.66
2022-09-10T04:00:38.613Z,58.49
2022-09-10T04:03:09.758Z,58.09
2022-09-10T04:05:41.326Z,58.34
2022-09-10T04:08:15.792Z,57.71
2022-09-10T04:10:47.697Z,57.31
2022-09-10T04:13:18.068Z,56.50
2022-09-10T04:15:50.629Z,56.01
2022-09-10T04:18:22.891Z,56.61
2022-09-10T04:20:53.127Z,56.81
2022-09-10T04:23:24.397Z,56.81
2022-09-10T04:25:54.778Z,57.25
2022-09-10T04:28:26.517Z,57.53
2022-09-10T04:30:59.864Z,57.48
2022-09-10T04:33:33.646Z,57.16
2022-09-10T04:36:04.742Z,58.27
2022-09-10T04:38:41.219Z,57.83
2022-09-10T04:41:16.006Z,56.91
2022-09-10T04:43:47.385Z,57.33
2022-09-10T04:46:17.922Z,56.78
2022-09-10T04:48:53.058Z,57.01
2022-09-10T04:51:27.599Z,56.96
2022-09-10T04:54:02.909Z,56.40
2022-09-10T04:56:32.142Z,56.54
2022-09-10T04:59:08.781Z,57.02
2022-09-10T05:01:39.326Z,56.26
2022-09-10T05:04:12.142Z,56.77
2022-09-10T05:06:42.732Z,56.49
2022-09-10T05:09:15.543Z,55.62
2022-09-10T05:11:50.504Z,56.35
2022-09-10T05:14:22.030Z,56.91
2022-09-10T05:16:50.826Z,56.14
2022-09-10T05:19:24.548Z,56.66
2022-09-10T05:21:58.365Z,55.57
2022-09-10T05:24:29.329Z,55.25
2022-09-10T05:26:59.698Z,55.25
2022-09-10T05:29:29.054Z,55.16
2022-09-10T05:32:00.522Z,55.24
2022-09-10T05:34:32.965Z,55.71
2022-09-10T05:37:05.192Z,56.04
2022-09-10T05:39:38.212Z,55.93
2022-09-10T05:42:09.870Z,55.09
2022-09-10T05:44:42.180Z,55.73
2022-09-10T05:47:13.725Z,56.48
2022-09-10T05:49:50.284Z,56.17
2022-09-10T05:52:22.429Z,56.27
2022-09-10T05:54:56.928Z,55.90
2022-09-10T05:57:27.423Z,55.78
2022-09-10T05:59:57.951Z,55.07
2022-09-10T06:02:29.728Z,55.23
2022-09-10T06:05:01.322Z,55.32
2022-09-10T06:07:33.802Z,54.33
2022-09-10T06:10:04.568Z,55.39
2022-09-10T06:12:40.747Z,56.45
2022-09-10T06:15:13.150Z,56.39
2022-09-10T06:17:45.788Z,56.59
2022-09-10T06:20:15.912Z,56.15
2022-09-10T06:22:46.568Z,55.50
2022-09-10T06:25:19.613Z,56.39
2022-09-10T06:27:48.051Z,55.50
2022-09-10T06:30:16.713Z,55.45
2022-09-10T06:32:48.472Z,55.20
2022-09-10T06:35:21.122Z,55.10
2022-09-10T06:37:52.001Z,55.04
2022-09-10T06:40:21.800Z,55.14
2022-09-10T06:42:55.130Z,55.24
2022-09-10T06:45:28.998Z,55.62
2022-09-10T06:48:38.185Z,56.42
2022-09-10T06:50:59.459Z,56.53
2022-09-10T06:53:33.941Z,55.81
2022-09-10T06:56:14.838Z,55.77
2022-09-10T06:58:57.541Z,55.84
2022-09-10T07:01:32.194Z,55.84
2022-09-10T07:04:02.446Z,56.06
2022-09-10T07:06:36.035Z,58.19
2022-09-10T07:09:06.850Z,57.61
2022-09-10T07:11:41.865Z,58.64
2022-09-10T07:14:13.503Z,58.27
2022-09-10T07:16:48.889Z,58.19
2022-09-10T07:19:20.457Z,58.17
2022-09-10T07:21:54.938Z,58.94
2022-09-10T07:24:27.526Z,59.29
2022-09-10T07:26:58.367Z,59.44
2022-09-10T07:29:32.054Z,60.02
2022-09-10T07:32:10.571Z,60.52
2022-09-10T07:34:48.013Z,61.93
2022-09-10T07:37:19.218Z,62.00
2022-09-10T07:39:50.705Z,62.48
2022-09-10T07:42:23.037Z,63.20
2022-09-10T07:44:53.660Z,63.69
2022-09-10T07:47:26.112Z,63.27
2022-09-10T07:49:54.841Z,62.27
2022-09-10T07:52:26.725Z,62.38
2022-09-10T07:54:57.622Z,61.43
2022-09-10T07:57:32.311Z,61.43
2022-09-10T08:00:05.439Z,60.84
2022-09-10T08:02:46.592Z,60.72
2022-09-10T08:05:17.736Z,60.54
2022-09-10T08:07:49.810Z,60.82
2022-09-10T08:10:20.468Z,60.86
2022-09-10T08:12:52.262Z,59.85
2022-09-10T08:15:25.023Z,59.21
2022-09-10T08:17:54.543Z,58.98
2022-09-10T08:20:29.100Z,58.59
2022-09-10T08:23:01.548Z,58.64
2022-09-10T08:25:34.229Z,58.82
2022-09-10T08:28:05.755Z,58.12
2022-09-10T08:30:41.932Z,56.71
2022-09-10T08:33:18.993Z,56.34
2022-09-10T08:35:56.433Z,55.46
2022-09-10T08:38:35.820Z,55.59
2022-09-10T08:41:38.830Z,56.06
2022-09-10T08:44:23.310Z,55.47
2022-09-10T08:47:13.631Z,54.42
2022-09-10T08:49:49.382Z,53.25
2022-09-10T08:52:42.738Z,53.10
2022-09-10T08:55:19.320Z,52.07
2022-09-10T08:58:00.891Z,52.68
2022-09-10T09:00:35.430Z,51.94
2022-09-10T09:03:33.928Z,52.16
2022-09-10T09:06:08.587Z,51.18
2022-09-10T09:08:48.789Z,51.03
2022-09-10T09:11:41.634Z,50.59
2022-09-10T09:14:28.351Z,50.47
2022-09-10T09:17:17.475Z,50.98
2022-09-10T09:20:06.239Z,50.82
2022-09-10T09:22:45.060Z,50.39
2022-09-10T09:25:26.889Z,49.80
2022-09-10T09:27:59.816Z,50.39
2022-09-10T09:30:42.528Z,49.31
2022-09-10T09:33:27.463Z,50.21
2022-09-10T09:36:03.731Z,49.48
2022-09-10T09:38:37.927Z,49.29
2022-09-10T09:41:24.928Z,47.18
2022-09-10T09:44:37.484Z,47.08
2022-09-10T09:47:09.049Z,46.25
2022-09-10T09:49:40.568Z,45.83
2022-09-10T09:52:20.021Z,46.05
2022-09-10T09:55:20.412Z,44.81
2022-09-10T09:58:24.801Z,44.01
2022-09-10T10:01:09.998Z,42.79
2022-09-10T10:04:04.402Z,42.41
2022-09-10T10:06:56.659Z,41.97
2022-09-10T10:09:34.269Z,41.65
2022-09-10T10:12:12.084Z,40.12
2022-09-10T10:14:55.394Z,40.02
2022-09-10T10:17:41.481Z,39.28
2022-09-10T10:20:46.186Z,39.10
2022-09-10T10:23:41.527Z,39.07
2022-09-10T10:26:18.111Z,38.87
2022-09-10T10:29:00.724Z,39.15
2022-09-10T10:31:41.808Z,38.90
2022-09-10T10:34:30.558Z,38.48
2022-09-10T10:37:50.730Z,37.77
2022-09-10T10:40:35.601Z,35.50
2022-09-10T10:43:56.727Z,34.49
2022-09-10T10:46:38.387Z,33.75
2022-09-10T10:49:13.983Z,33.83
2022-09-10T10:52:07.688Z,34.79
2022-09-10T10:54:37.849Z,34.68
2022-09-10T10:57:19.364Z,34.41
2022-09-10T10:59:56.384Z,34.64
2022-09-10T11:02:41.157Z,34.43
2022-09-10T11:05:35.763Z,34.07
2022-09-10T11:08:16.034Z,32.93
2022-09-10T11:10:54.978Z,32.10
2022-09-10T11:13:32.108Z,31.96
2022-09-10T11:16:21.633Z,31.40
2022-09-10T11:19:11.599Z,31.68
2022-09-10T11:22:06.480Z,31.09
2022-09-10T11:24:49.305Z,30.36
2022-09-10T11:27:26.215Z,30.30
2022-09-10T11:30:04.364Z,30.66
2022-09-10T11:32:48.103Z,30.50
2022-09-10T11:35:29.793Z,30.25
2022-09-10T11:38:25.046Z,30.01
2022-09-10T11:41:05.640Z,29.94
2022-09-10T11:43:44.131Z,30.48
2022-09-10T11:46:35.251Z,30.20
2022-09-10T11:49:32.777Z,29.64
2022-09-10T11:52:02.470Z,29.70
2022-09-10T11:54:37.309Z,29.18
2022-09-10T11:57:18.998Z,28.44
2022-09-10T12:00:26.741Z,28.14
2022-09-10T12:03:27.384Z,28.67
2022-09-10T12:06:16.515Z,29.04
2022-09-10T12:09:08.402Z,28.62
2022-09-10T12:11:43.929Z,28.37
2022-09-10T12:14:21.149Z,28.67
2022-09-10T12:17:04.476Z,28.78
2022-09-10T12:19:42.105Z,29.08
2022-09-10T12:22:21.274Z,29.92
2022-09-10T12:24:55.933Z,29.54
2022-09-10T12:27:45.293Z,29.89
2022-09-10T12:30:31.997Z,29.48
2022-09-10T12:33:26.938Z,29.86
2022-09-10T12:36:09.104Z,30.01
2022-09-10T12:38:48.117Z,29.64
2022-09-10T12:41:27.403Z,29.69
2022-09-10T12:44:03.425Z,29.20
2022-09-10T12:46:34.174Z,29.22
2022-09-10T12:49:02.000Z,29.18
2022-09-10T12:51:44.289Z,29.87
2022-09-10T12:54:51.643Z,29.99
2022-09-10T12:57:50.617Z,29.58
2022-09-10T13:00:26.695Z,30.04
2022-09-10T13:03:09.170Z,28.85
2022-09-10T13:05:40.766Z,29.35
2022-09-10T13:08:24.436Z,29.71
2022-09-10T13:11:01.622Z,29.59
2022-09-10T13:13:34.395Z,30.31
2022-09-10T13:16:07.232Z,30.34
2022-09-10T13:18:42.066Z,30.35
2022-09-10T13:21:24.326Z,30.46
2022-09-10T13:23:57.039Z,30.70
2022-09-10T13:26:28.732Z,31.02
2022-09-10T13:29:08.594Z,30.10
2022-09-10T13:31:46.159Z,29.59
2022-09-10T13:34:14.378Z,29.44
2022-09-10T13:36:53.444Z,29.54
2022-09-10T13:39:42.447Z,29.80
2022-09-10T13:42:27.435Z,30.31
2022-09-10T13:44:57.624Z,31.00
2022-09-10T13:47:34.106Z,30.82
2022-09-10T13:50:14.368Z,30.55
2022-09-10T13:52:45.367Z,30.47
2022-09-10T13:55:30.437Z,30.28
2022-09-10T13:58:06.558Z,30.18
2022-09-10T14:01:04.045Z,30.39
2022-09-10T14:03:37.621Z,30.04
2022-09-10T14:06:07.786Z,29.30
2022-09-10T14:08:51.931Z,29.27
2022-09-10T14:11:25.493Z,29.53
2022-09-10T14:14:09.832Z,29.87
2022-09-10T14:16:51.925Z,29.28
2022-09-10T14:19:28.259Z,29.12
2022-09-10T14:21:58.605Z,29.03
2022-09-10T14:24:33.446Z,29.32
2022-09-10T14:27:28.136Z,29.23
2022-09-10T14:30:16.912Z,29.11
2022-09-10T14:32:48.384Z,29.35
2022-09-10T14:35:41.392Z,29.20
2022-09-10T14:38:35.005Z,29.04
2022-09-10T14:41:20.008Z,28.62
2022-09-10T14:43:51.242Z,28.61
2022-09-10T14:46:55.710Z,28.26
2022-09-10T14:49:34.087Z,28.54
2022-09-10T14:52:03.732Z,27.97
2022-09-10T14:54:34.308Z,27.60
2022-09-10T14:57:15.657Z,27.82
2022-09-10T14:59:48.034Z,27.77
2022-09-10T15:02:20.271Z,27.52
2022-09-10T15:04:48.510Z,27.94
2022-09-10T15:07:16.953Z,28.04
2022-09-10T15:09:47.070Z,28.09
2022-09-10T15:12:28.367Z,28.24
2022-09-10T15:15:00.225Z,28.06
2022-09-10T15:17:28.320Z,28.34
2022-09-10T15:19:58.061Z,28.36
2022-09-10T15:22:31.679Z,28.07
2022-09-10T15:25:14.064Z,28.30
2022-09-10T15:27:42.083Z,28.19
2022-09-10T15:30:10.774Z,28.30
2022-09-10T15:32:40.644Z,28.11
2022-09-10T15:35:15.992Z,28.10
2022-09-10T15:37:46.986Z,28.44
2022-09-10T15:40:20.982Z,27.73
2022-09-10T15:42:52.632Z,29.13
2022-09-10T15:45:22.714Z,28.67
2022-09-10T15:47:51.229Z,28.99
2022-09-10T15:50:19.174Z,29.41
2022-09-10T15:52:49.036Z,30.22
2022-09-10T15:55:19.396Z,29.26
2022-09-10T15:57:51.617Z,29.74
2022-09-10T16:00:20.804Z,29.77
2022-09-10T16:02:54.056Z,30.09
2022-09-10T16:05:22.654Z,29.89
2022-09-10T16:07:50.987Z,30.12
2022-09-10T16:10:22.762Z,30.57
2022-09-10T16:12:52.077Z,31.25
2022-09-10T16:15:21.730Z,30.83
2022-09-10T16:18:00.836Z,30.88
2022-09-10T16:20:29.083Z,31.55
2022-09-10T16:23:00.541Z,31.75
2022-09-10T16:25:31.134Z,31.89
2022-09-10T16:28:00.673Z,31.72
2022-09-10T16:30:31.444Z,32.57
2022-09-10T16:33:11.412Z,32.76
2022-09-10T16:35:39.470Z,32.44
2022-09-10T16:38:10.401Z,33.01
2022-09-10T16:40:38.264Z,33.13
2022-09-10T16:43:08.764Z,33.02
2022-09-10T16:45:49.858Z,33.36
2022-09-10T16:48:17.616Z,33.98
2022-09-10T16:50:46.585Z,34.17
2022-09-10T16:53:16.456Z,34.16
2022-09-10T16:55:48.192Z,34.41
2022-09-10T16:58:20.992Z,34.47
2022-09-10T17:00:52.380Z,34.47
2022-09-10T17:03:23.885Z,34.69
2022-09-10T17:05:53.635Z,35.01
2022-09-10T17:08:22.076Z,35.22
2022-09-10T17:10:50.569Z,35.55
2022-09-10T17:13:21.647Z,35.75
2022-09-10T17:15:54.294Z,35.40
2022-09-10T17:18:24.555Z,35.12
2022-09-10T17:20:52.857Z,34.76
2022-09-10T17:23:21.052Z,34.31
2022-09-10T17:25:49.233Z,34.11
2022-09-10T17:28:21.648Z,34.18
2022-09-10T17:30:51.822Z,33.23
2022-09-10T17:33:23.479Z,33.43
2022-09-10T17:35:58.434Z,33.82
2022-09-10T17:38:30.367Z,33.45
2022-09-10T17:41:00.318Z,34.02
2022-09-10T17:43:36.406Z,34.02
2022-09-10T17:46:06.107Z,34.24
2022-09-10T17:48:38.323Z,35.04
2022-09-10T17:51:08.929Z,35.18
2022-09-10T17:53:38.008Z,35.38
2022-09-10T17:56:08.690Z,35.15
2022-09-10T17:58:37.130Z,35.40
2022-09-10T18:01:09.634Z,35.52
2022-09-10T18:03:37.983Z,35.24
2022-09-10T18:06:10.649Z,35.57
2022-09-10T18:08:42.323Z,35.47
2022-09-10T18:11:13.616Z,35.33
2022-09-10T18:13:42.878Z,35.61
2022-09-10T18:16:14.741Z,36.28
2022-09-10T18:18:47.697Z,35.73
2022-09-10T18:21:21.710Z,36.28
2022-09-10T18:23:52.306Z,36.77
2022-09-10T18:26:22.653Z,36.92
2022-09-10T18:28:57.949Z,37.68
2022-09-10T18:31:49.445Z,37.68
2022-09-10T18:34:24.206Z,37.67
2022-09-10T18:36:54.812Z,39.20
2022-09-10T18:39:25.551Z,39.20
2022-09-10T18:41:53.531Z,38.42
2022-09-10T18:44:24.534Z,39.45
2022-09-10T18:46:53.474Z,39.71
2022-09-10T18:49:23.686Z,39.93
2022-09-10T18:51:55.997Z,40.12
2022-09-10T18:54:29.064Z,40.64
2022-09-10T18:56:57.850Z,40.71
2022-09-10T18:59:27.014Z,40.96
2022-09-10T19:01:56.219Z,40.26
2022-09-10T19:04:27.158Z,41.21
2022-09-10T19:06:57.047Z,41.21
2022-09-10T19:09:29.758Z,40.77
2022-09-10T19:12:01.390Z,41.41
2022-09-10T19:14:30.886Z,42.21
2022-09-10T19:17:00.785Z,41.68
2022-09-10T19:19:35.519Z,41.71
2022-09-10T19:22:10.865Z,41.71
2022-09-10T19:24:55.605Z,42.26
2022-09-10T19:27:24.617Z,42.16
2022-09-10T19:29:53.473Z,43.18
2022-09-10T19:32:22.008Z,43.10
2022-09-10T19:34:52.144Z,42.94
2022-09-10T19:37:21.200Z,42.70
2022-09-10T19:39:49.593Z,44.22
2022-09-10T19:42:21.227Z,43.93
2022-09-10T19:44:49.824Z,43.22
2022-09-10T19:47:18.997Z,43.82
2022-09-10T19:49:48.666Z,44.05
2022-09-10T19:52:17.135Z,43.60
2022-09-10T19:54:51.906Z,43.71
2022-09-10T19:57:19.746Z,44.41
2022-09-10T19:59:48.907Z,44.30
2022-09-10T20:02:16.851Z,44.49
2022-09-10T20:04:45.208Z,44.30
2022-09-10T20:07:15.534Z,44.84
2022-09-10T20:09:44.763Z,45.00
2022-09-10T20:12:13.965Z,45.15
2022-09-10T20:14:42.021Z,45.44
2022-09-10T20:17:13.208Z,46.04
2022-09-10T20:19:43.265Z,46.35
2022-09-10T20:22:15.724Z,46.20
2022-09-10T20:24:47.016Z,46.02
2022-09-10T20:27:18.599Z,45.32
2022-09-10T20:29:49.470Z,46.04
2022-09-10T20:32:17.734Z,46.46
2022-09-10T20:34:48.622Z,46.43
2022-09-10T20:37:17.038Z,47.42
2022-09-10T20:39:46.605Z,46.66
2022-09-10T20:42:17.103Z,46.94
2022-09-10T20:44:45.837Z,47.27
2022-09-10T20:47:16.896Z,46.83
2022-09-10T20:49:46.136Z,48.44
2022-09-10T20:52:14.581Z,48.98
2022-09-10T20:54:42.569Z,48.81
2022-09-10T20:57:11.890Z,48.30
2022-09-10T20:59:40.448Z,48.60
2022-09-10T21:02:11.485Z,48.55
2022-09-10T21:04:40.017Z,48.04
2022-09-10T21:07:08.025Z,47.80
2022-09-10T21:09:36.027Z,47.46
2022-09-10T21:12:06.173Z,47.11
2022-09-10T21:14:33.927Z,47.54
2022-09-10T21:17:02.024Z,47.63
2022-09-10T21:19:31.064Z,46.50
2022-09-10T21:21:59.365Z,47.41
2022-09-10T21:24:29.113Z,47.32
2022-09-10T21:26:57.595Z,47.42
2022-09-10T21:29:25.696Z,47.83
2022-09-10T21:31:56.355Z,47.68
2022-09-10T21:34:25.232Z,47.11
2022-09-10T21:36:53.436Z,46.78
2022-09-10T21:39:21.276Z,47.57
2022-09-10T21:41:50.937Z,48.29
2022-09-10T21:44:25.155Z,48.03
2022-09-10T21:46:53.795Z,47.41
2022-09-10T21:49:21.663Z,47.81
2022-09-10T21:51:50.949Z,48.48
2022-09-10T21:54:21.084Z,47.18
2022-09-10T21:56:50.509Z,47.19
2022-09-10T21:59:19.591Z,48.34
2022-09-10T22:01:50.122Z,48.99
2022-09-10T22:04:22.711Z,48.28
2022-09-10T22:06:54.541Z,49.08
2022-09-10T22:09:26.483Z,49.32
2022-09-10T22:11:59.515Z,50.22
2022-09-10T22:14:35.196Z,50.19
2022-09-10T22:17:06.774Z,49.46
2022-09-10T22:19:36.844Z,50.29
2022-09-10T22:22:07.943Z,50.97
2022-09-10T22:24:48.503Z,50.56
2022-09-10T22:27:19.580Z,50.71
2022-09-10T22:29:50.093Z,50.97
2022-09-10T22:32:20.093Z,51.45
2022-09-10T22:34:53.078Z,51.23
2022-09-10T22:37:26.246Z,50.22
2022-09-10T22:39:56.086Z,51.14
2022-09-10T22:42:32.786Z,51.87
2022-09-10T22:45:05.892Z,50.07
2022-09-10T22:47:36.224Z,51.31
2022-09-10T22:50:06.490Z,52.08
2022-09-10T22:52:37.085Z,52.11
2022-09-10T22:55:08.635Z,51.89
2022-09-10T22:57:42.748Z,51.77
2022-09-10T23:00:14.721Z,50.38
2022-09-10T23:02:48.513Z,51.58
2022-09-10T23:05:30.745Z,51.84
2022-09-10T23:08:01.784Z,52.02
2022-09-10T23:10:33.631Z,52.28
2022-09-10T23:13:08.873Z,52.09
2022-09-10T23:15:40.329Z,52.17
2022-09-10T23:18:11.884Z,51.04
2022-09-10T23:20:44.769Z,51.31
2022-09-10T23:23:15.896Z,51.06
2022-09-10T23:25:47.407Z,52.01
2022-09-10T23:28:17.112Z,52.54
2022-09-10T23:30:49.606Z,52.97
2022-09-10T23:33:23.194Z,52.47
2022-09-10T23:35:53.497Z,52.52
2022-09-10T23:38:26.835Z,52.55
2022-09-10T23:40:56.737Z,52.67
2022-09-10T23:43:28.783Z,52.57
2022-09-10T23:46:00.145Z,52.49
2022-09-10T23:48:35.737Z,51.99
2022-09-10T23:51:08.768Z,52.57
2022-09-10T23:53:40.617Z,52.90
2022-09-10T23:56:15.626Z,53.24
2022-09-10T23:58:47.277Z,52.71
